Two Buttes, CO (81084)

05:56 AM MDT del 01 Luglio 2015 (GMT -0600)
Lycan | | Change Station
CLOSE
Current Station
Stazione meteo personale
Location: Granada, CO
Altitudine: 3940 ft
Stazioni meteo nelle vicinanze

Alt. 3940 ft 37.69 °N, 102.26 °W | Updated 1 minute ago

Sereno
Sereno
70.2 °F
Sembra 77 °F
N
6.0
Vento Variabile Vento da Ovest
Gusts 8.0 mph

Oggi
Massima -- | Minima -- °F
--% Possibilità di precip.
Ieri
Massima -- | Minima -- °F
Precip. -- in
5:31 AM 8:15 PM
Luna piena, 100% visible
Pressione 29.79 in
Visibilità 7.0 miglia
Nuvole Sereno
Indice di calore 77 °F
Punto di rugiada 51 °F
Umidità 50%
Piovosità 0.00 in
Spessore del manto nevoso Non disponibile.
Raggi UV 0 fuori da 12
Polline 5.60 fuori da 12
Qualità dell'aria Non disponibile.
Flu Activity Non disponibile.
METAR KLAA 011153Z AUTO 22005KT 7SM CLR 19/14 A2997 RMK AO2 SLP088 T01890144 10261 20189 53003 TSNO

More Conditions Fewer Conditions

Pressione 29.79 in
Visibilità 7.0 miglia
Nuvole Sereno
Indice di calore 77 °F
Punto di rugiada 51 °F
Umidità 50%
Piovosità 0.00 in
Spessore del manto nevoso Non disponibile.
Raggi UV 0 fuori da 12
Polline 5.60 fuori da 12
Qualità dell'aria Non disponibile.
Flu Activity Non disponibile.
METAR KLAA 011153Z AUTO 22005KT 7SM CLR 19/14 A2997 RMK AO2 SLP088 T01890144 10261 20189 53003 TSNO

More Conditions Fewer Conditions

10-Day Weather Forecast

×

Almanac

Astronomia

Jul. 01, 2015 Alba Tramonto
Ora attuale
Crepuscolo civile
Crepuscolo nautico
Crepuscolo astronomico
Luna
Estensione della luce visibile
Lunghezza del giorno
Tomorrow will be .
, % of the Moon is Illuminated

Gli estremi di oggi

State Highs State Lows

Community

WunderPhotos

Upload Photos

1,834,180 foto caricate!

WunderBlogs® & News

Nearby

Qualità dell'aria

  Qualità dell'aria Indice AQ Inquinante
Not available.

Profondità neve

Stazione Profondità Altitudine

Attività sismica

Città  Distanza Mag. Data & Ora
Minimo Magnitudo Mostrato è 2.5.

Temperature delle acque costiere

Località Temperatura

Stations

Stazioni meteo nelle vicinanze

Ubicazione della stazione Temp. Raffreddamento del vento Punto di rugiada Umidità Vento Precip. Alt. Aggiornato Tipo